Salinas, Brazil
Current Conditions -  °F | °C
As of 8:00 PM on Saturday 20 Dec 2014 (Local Time) from SBMK Reporting Station
Clear Clear  
Wind Chill: 81°   Ceiling: Unl
Heat Index: 83°   Visibility: 6mi
Dew Point: 66°   Wind: 5mph
Humidity: 61%   Direction: 30°NNE
Pressure: 29.91"   Gusts: NA
Location:  16.17°S, 42.29°W
Report Text: SBMK 202200Z 03004KT CAVOK 27/19 Q1013
Loading
Personal Weather Stations






























Interactive Weather Map New forecast layout! Learn more

10-Day Weather Forecast

Advertisements
Track Severe Weather on mobile